createdAt,value
2023-05-25T00:01:24.516Z,96121.78
2023-05-25T00:04:10.535Z,96134.50
2023-05-25T00:06:55.951Z,96126.13
2023-05-25T00:09:42.026Z,96127.19
2023-05-25T00:12:27.038Z,96128.81
2023-05-25T00:15:12.234Z,96128.47
2023-05-25T00:17:57.597Z,96126.38
2023-05-25T00:20:44.908Z,96127.56
2023-05-25T00:23:30.014Z,96134.22
2023-05-25T00:26:15.693Z,96123.22
2023-05-25T00:29:01.165Z,96132.09
2023-05-25T00:31:46.548Z,96141.28
2023-05-25T00:34:31.771Z,96142.03
2023-05-25T00:37:17.202Z,96133.13
2023-05-25T00:40:04.256Z,96143.78
2023-05-25T00:42:49.514Z,96146.06
2023-05-25T00:45:34.908Z,96149.19
2023-05-25T00:48:20.458Z,96142.94
2023-05-25T00:51:06.282Z,96149.50
2023-05-25T00:53:51.610Z,96145.00
2023-05-25T00:56:40.985Z,96144.41
2023-05-25T00:59:35.971Z,96146.41
2023-05-25T01:02:24.438Z,96132.72
2023-05-25T01:05:12.394Z,96130.72
2023-05-25T01:08:02.059Z,96132.66
2023-05-25T01:10:49.947Z,96130.22
2023-05-25T01:13:38.272Z,96130.81
2023-05-25T01:16:28.408Z,96134.06
2023-05-25T01:19:14.247Z,96137.28
2023-05-25T01:22:10.415Z,96137.75
2023-05-25T01:25:02.285Z,96139.53
2023-05-25T01:28:09.024Z,96137.25
2023-05-25T01:30:56.940Z,96140.66
2023-05-25T01:33:44.653Z,96136.22
2023-05-25T01:36:30.149Z,96128.75
2023-05-25T01:39:15.837Z,96127.13
2023-05-25T01:42:01.880Z,96129.19
2023-05-25T01:44:47.826Z,96128.59
2023-05-25T01:47:37.398Z,96129.66
2023-05-25T01:50:34.346Z,96125.78
2023-05-25T01:53:23.658Z,96136.44
2023-05-25T01:56:11.752Z,96132.75
2023-05-25T01:58:59.300Z,96133.78
2023-05-25T02:01:46.350Z,96126.97
2023-05-25T02:04:31.941Z,96129.66
2023-05-25T02:07:17.381Z,96126.09
2023-05-25T02:10:03.409Z,96123.28
2023-05-25T02:12:48.394Z,96124.56
2023-05-25T02:15:34.199Z,96124.97
2023-05-25T02:18:19.751Z,96129.88
2023-05-25T02:21:05.155Z,96126.09
2023-05-25T02:23:50.244Z,96130.91
2023-05-25T02:26:36.874Z,96130.22
2023-05-25T02:29:22.378Z,96128.16
2023-05-25T02:32:07.896Z,96137.25
2023-05-25T02:34:52.949Z,96137.31
2023-05-25T02:37:39.152Z,96138.09
2023-05-25T02:40:24.718Z,96134.75
2023-05-25T02:43:10.111Z,96135.13
2023-05-25T02:45:55.454Z,96128.75
2023-05-25T02:48:42.479Z,96134.00
2023-05-25T02:51:28.867Z,96136.91
2023-05-25T02:54:14.135Z,96137.63
2023-05-25T02:56:59.484Z,96137.94
2023-05-25T02:59:44.817Z,96141.19
2023-05-25T03:02:30.929Z,96140.28
2023-05-25T03:05:17.780Z,96143.09
2023-05-25T03:08:02.897Z,96143.44
2023-05-25T03:10:48.181Z,96144.72
2023-05-25T03:13:33.468Z,96141.91
2023-05-25T03:16:18.925Z,96149.41
2023-05-25T03:19:05.508Z,96149.41
2023-05-25T03:21:51.124Z,96155.09
2023-05-25T03:24:36.559Z,96146.50
2023-05-25T03:27:21.896Z,96147.97
2023-05-25T03:30:07.987Z,96145.53
2023-05-25T03:32:53.101Z,96146.94
2023-05-25T03:35:38.405Z,96144.44
2023-05-25T03:38:23.735Z,96147.53
2023-05-25T03:41:08.999Z,96145.78
2023-05-25T03:43:54.520Z,96142.97
2023-05-25T03:46:40.034Z,96139.94
2023-05-25T03:49:25.749Z,96144.44
2023-05-25T03:52:11.122Z,96140.16
2023-05-25T03:54:56.708Z,96144.28
2023-05-25T03:57:42.368Z,96148.06
2023-05-25T04:00:27.879Z,96149.72
2023-05-25T04:03:13.573Z,96153.03
2023-05-25T04:06:00.490Z,96151.53
2023-05-25T04:08:45.910Z,96148.25
2023-05-25T04:11:31.260Z,96151.78
2023-05-25T04:14:16.523Z,96148.09
2023-05-25T04:17:01.912Z,96152.19
2023-05-25T04:19:47.134Z,96150.34
2023-05-25T04:22:33.481Z,96158.91
2023-05-25T04:25:22.287Z,96161.56
2023-05-25T04:28:08.594Z,96163.66
2023-05-25T04:30:57.210Z,96175.94
2023-05-25T04:33:42.752Z,96174.09
2023-05-25T04:36:28.272Z,96179.94
2023-05-25T04:39:13.652Z,96172.56
2023-05-25T04:42:01.687Z,96182.00
2023-05-25T04:44:47.584Z,96186.94
2023-05-25T04:47:32.842Z,96190.66
2023-05-25T04:50:18.260Z,96196.81
2023-05-25T04:53:03.401Z,96194.78
2023-05-25T04:55:52.022Z,96197.63
2023-05-25T04:58:37.120Z,96197.63
2023-05-25T05:01:22.426Z,96201.94
2023-05-25T05:04:08.608Z,96197.03
2023-05-25T05:06:56.115Z,96194.56
2023-05-25T05:09:43.198Z,96193.47
2023-05-25T05:12:28.441Z,96191.03
2023-05-25T05:15:13.782Z,96194.28
2023-05-25T05:17:59.484Z,96199.44
2023-05-25T05:20:44.930Z,96199.44
2023-05-25T05:23:29.982Z,96209.28
2023-05-25T05:26:15.604Z,96202.09
2023-05-25T05:29:00.863Z,96209.22
2023-05-25T05:31:46.328Z,96201.25
2023-05-25T05:34:31.609Z,96207.72
2023-05-25T05:37:16.654Z,96204.06
2023-05-25T05:40:02.072Z,96207.50
2023-05-25T05:42:46.976Z,96213.00
2023-05-25T05:45:32.258Z,96209.75
2023-05-25T05:48:17.263Z,96211.16
2023-05-25T05:51:04.448Z,96209.31
2023-05-25T05:53:49.873Z,96219.13
2023-05-25T05:56:35.554Z,96214.63
2023-05-25T05:59:22.498Z,96220.31
2023-05-25T06:02:07.788Z,96221.72
2023-05-25T06:04:52.996Z,96219.44
2023-05-25T06:07:38.894Z,96216.34
2023-05-25T06:10:24.065Z,96228.31
2023-05-25T06:13:09.490Z,96229.66
2023-05-25T06:15:54.969Z,96228.25
2023-05-25T06:18:40.399Z,96226.53
2023-05-25T06:21:25.636Z,96240.00
2023-05-25T06:24:10.905Z,96239.00
2023-05-25T06:26:56.181Z,96235.97
2023-05-25T06:29:41.424Z,96241.28
2023-05-25T06:32:26.734Z,96242.06
2023-05-25T06:35:19.595Z,96251.13
2023-05-25T06:38:04.847Z,96244.59
2023-05-25T06:40:49.889Z,96235.97
2023-05-25T06:43:35.557Z,96241.19
2023-05-25T06:46:21.656Z,96245.19
2023-05-25T06:49:06.903Z,96248.88
2023-05-25T06:51:52.552Z,96247.06
2023-05-25T06:54:37.455Z,96244.16
2023-05-25T06:57:23.713Z,96250.31
2023-05-25T07:00:12.214Z,96243.09
2023-05-25T07:02:57.072Z,96246.72
2023-05-25T07:05:42.702Z,96256.06
2023-05-25T07:08:28.236Z,96259.81
2023-05-25T07:11:14.362Z,96262.41
2023-05-25T07:13:59.555Z,96261.13
2023-05-25T07:16:48.258Z,96261.88
2023-05-25T07:19:33.646Z,96255.78
2023-05-25T07:22:19.633Z,96262.53
2023-05-25T07:25:05.174Z,96270.19
2023-05-25T07:27:50.584Z,96267.25
2023-05-25T07:30:36.533Z,96261.53
2023-05-25T07:33:21.936Z,96261.06
2023-05-25T07:36:07.536Z,96263.28
2023-05-25T07:38:52.891Z,96264.34
2023-05-25T07:41:39.019Z,96264.59
2023-05-25T07:44:24.133Z,96268.28
2023-05-25T07:47:11.349Z,96265.31
2023-05-25T07:49:56.718Z,96268.00
2023-05-25T07:52:42.457Z,96270.34
2023-05-25T07:55:27.790Z,96271.03
2023-05-25T07:58:13.028Z,96269.03
2023-05-25T08:00:58.391Z,96267.91
2023-05-25T08:03:49.723Z,96266.59
2023-05-25T08:06:36.139Z,96269.88
2023-05-25T08:09:21.556Z,96272.31
2023-05-25T08:14:58.714Z,96271.06
2023-05-25T08:17:44.433Z,96281.25
2023-05-25T08:20:30.612Z,96266.53
2023-05-25T08:23:16.090Z,96272.44
2023-05-25T08:26:05.944Z,96274.41
2023-05-25T08:28:57.058Z,96271.41
2023-05-25T08:31:43.909Z,96277.88
2023-05-25T08:34:29.655Z,96279.06
2023-05-25T08:37:14.961Z,96273.38
2023-05-25T08:40:02.457Z,96266.53
2023-05-25T08:42:47.854Z,96279.31
2023-05-25T08:45:35.173Z,96264.56
2023-05-25T08:48:39.210Z,96267.94
2023-05-25T08:51:26.421Z,96259.13
2023-05-25T08:54:13.593Z,96259.69
2023-05-25T08:57:38.086Z,96269.00
2023-05-25T09:00:30.466Z,96265.47
2023-05-25T09:03:20.085Z,96265.81
2023-05-25T09:06:05.989Z,96273.41
2023-05-25T09:08:51.890Z,96276.28
2023-05-25T09:11:39.944Z,96268.91
2023-05-25T09:14:27.507Z,96279.31
2023-05-25T09:17:14.801Z,96276.84
2023-05-25T09:20:00.111Z,96276.31
2023-05-25T09:22:47.202Z,96284.16
2023-05-25T09:25:33.800Z,96284.00
2023-05-25T09:28:26.869Z,96290.34
2023-05-25T09:31:13.340Z,96280.19
2023-05-25T09:34:00.388Z,96283.59
2023-05-25T09:36:46.266Z,96274.38
2023-05-25T09:39:31.846Z,96285.97
2023-05-25T09:42:17.916Z,96277.47
2023-05-25T09:45:05.347Z,96283.09
2023-05-25T09:47:55.926Z,96282.66
2023-05-25T09:50:41.136Z,96282.25
2023-05-25T09:53:26.862Z,96286.25
2023-05-25T09:56:12.712Z,96284.22
2023-05-25T09:58:58.466Z,96276.09
2023-05-25T10:01:46.654Z,96276.75
2023-05-25T10:04:31.978Z,96270.66
2023-05-25T10:07:17.640Z,96264.88
2023-05-25T10:10:07.667Z,96270.44
2023-05-25T10:12:53.778Z,96272.19
2023-05-25T10:15:43.154Z,96276.09
2023-05-25T10:18:32.882Z,96271.63
2023-05-25T10:21:20.550Z,96269.03
2023-05-25T10:24:24.937Z,96259.53
2023-05-25T10:27:26.262Z,96263.91
2023-05-25T10:30:14.471Z,96254.81
2023-05-25T10:33:01.813Z,96256.03
2023-05-25T10:36:02.270Z,96254.63
2023-05-25T10:38:55.471Z,96254.31
2023-05-25T10:41:42.090Z,96257.56
2023-05-25T10:44:29.165Z,96258.56
2023-05-25T10:47:16.239Z,96251.69
2023-05-25T10:50:03.116Z,96243.91
2023-05-25T10:53:02.067Z,96248.75
2023-05-25T10:55:47.347Z,96250.97
2023-05-25T10:58:34.155Z,96255.41
2023-05-25T11:01:19.758Z,96249.53
2023-05-25T11:04:11.252Z,96254.16
2023-05-25T11:07:03.092Z,96251.25
2023-05-25T11:09:58.901Z,96248.38
2023-05-25T11:12:46.576Z,96249.06
2023-05-25T11:15:31.736Z,96239.63
2023-05-25T11:18:17.100Z,96239.69
2023-05-25T11:21:29.004Z,96236.50
2023-05-25T11:24:16.233Z,96229.06
2023-05-25T11:27:01.938Z,96227.34
2023-05-25T11:29:51.087Z,96223.94
2023-05-25T11:32:39.897Z,96221.13
2023-05-25T11:35:26.569Z,96227.50
2023-05-25T11:38:12.700Z,96223.31
2023-05-25T11:40:58.181Z,96220.44
2023-05-25T11:43:45.881Z,96212.50
2023-05-25T11:46:33.098Z,96215.53
2023-05-25T11:49:21.753Z,96221.94
2023-05-25T11:52:07.509Z,96212.81
2023-05-25T11:54:53.329Z,96213.16
2023-05-25T11:57:39.251Z,96226.28
2023-05-25T12:00:27.220Z,96228.91
2023-05-25T12:03:30.202Z,96215.31
2023-05-25T12:06:28.003Z,96222.88
2023-05-25T12:09:13.150Z,96216.06
2023-05-25T12:11:59.008Z,96211.78
2023-05-25T12:14:51.899Z,96205.31
2023-05-25T12:17:41.363Z,96196.56
2023-05-25T12:20:27.347Z,96207.44
2023-05-25T12:23:13.047Z,96202.06
2023-05-25T12:26:13.878Z,96200.47
2023-05-25T12:29:03.911Z,96203.50
2023-05-25T12:31:49.269Z,96190.47
2023-05-25T12:34:34.885Z,96191.09
2023-05-25T12:37:22.329Z,96190.38
2023-05-25T12:40:18.654Z,96192.84
2023-05-25T12:43:04.012Z,96190.41
2023-05-25T12:45:49.387Z,96196.38
2023-05-25T12:48:34.729Z,96190.94
2023-05-25T12:51:20.135Z,96190.66
2023-05-25T12:54:05.733Z,96196.03
2023-05-25T12:56:55.632Z,96187.69
2023-05-25T12:59:46.258Z,96181.41
2023-05-25T13:02:32.379Z,96188.22
2023-05-25T13:05:28.261Z,96181.94
2023-05-25T13:08:13.747Z,96175.81
2023-05-25T13:10:58.903Z,96182.31
2023-05-25T13:13:44.981Z,96179.88
2023-05-25T13:16:33.718Z,96176.91
2023-05-25T13:19:20.458Z,96175.75
2023-05-25T13:22:05.657Z,96167.13
2023-05-25T13:24:50.997Z,96162.88
2023-05-25T13:27:37.980Z,96158.00
2023-05-25T13:30:23.144Z,96154.22
2023-05-25T13:33:08.512Z,96168.19
2023-05-25T13:36:07.950Z,96165.19
2023-05-25T13:38:53.395Z,96157.88
2023-05-25T13:41:38.635Z,96157.06
2023-05-25T13:44:23.933Z,96157.13
2023-05-25T13:47:09.325Z,96144.75
2023-05-25T13:49:54.693Z,96148.34
2023-05-25T13:52:39.842Z,96147.06
2023-05-25T13:55:25.204Z,96147.66
2023-05-25T13:58:10.624Z,96127.47
2023-05-25T14:00:56.064Z,96132.09
2023-05-25T14:03:41.714Z,96138.53
2023-05-25T14:06:27.076Z,96136.91
2023-05-25T14:09:13.577Z,96137.66
2023-05-25T14:11:59.093Z,96140.13
2023-05-25T14:14:44.387Z,96136.63
2023-05-25T14:17:29.821Z,96129.38
2023-05-25T14:20:25.201Z,96139.91
2023-05-25T14:23:12.759Z,96136.69
2023-05-25T14:25:59.699Z,96149.34
2023-05-25T14:28:44.929Z,96148.72
2023-05-25T14:31:30.248Z,96138.78
2023-05-25T14:34:15.495Z,96143.31
2023-05-25T14:37:00.907Z,96140.13
2023-05-25T14:39:46.120Z,96134.53
2023-05-25T14:42:31.333Z,96135.66
2023-05-25T14:45:16.579Z,96125.16
2023-05-25T14:48:15.313Z,96132.44
2023-05-25T14:51:02.836Z,96135.66
2023-05-25T14:53:48.263Z,96128.13
2023-05-25T14:56:33.943Z,96130.53
2023-05-25T14:59:19.493Z,96127.31
2023-05-25T15:02:05.175Z,96127.59
2023-05-25T15:04:50.644Z,96132.69
2023-05-25T15:07:35.972Z,96123.53
2023-05-25T15:10:21.254Z,96136.72
2023-05-25T15:13:06.456Z,96129.97
2023-05-25T15:15:57.144Z,96142.84
2023-05-25T15:18:43.571Z,96152.75
2023-05-25T15:21:28.597Z,96167.56
2023-05-25T15:24:16.698Z,96160.50
2023-05-25T15:27:01.896Z,96165.78
2023-05-25T15:29:47.247Z,96165.22
2023-05-25T15:32:32.821Z,96176.03
2023-05-25T15:35:18.251Z,96161.53
2023-05-25T15:38:03.569Z,96173.88
2023-05-25T15:40:48.893Z,96188.97
2023-05-25T15:43:34.052Z,96191.00
2023-05-25T15:46:19.496Z,96184.22
2023-05-25T15:49:10.846Z,96195.44
2023-05-25T15:51:56.371Z,96199.69
2023-05-25T15:54:41.789Z,96200.63
2023-05-25T15:57:27.161Z,96209.41
2023-05-25T16:00:12.898Z,96207.72
2023-05-25T16:02:58.357Z,96208.91
2023-05-25T16:05:44.021Z,96212.31
2023-05-25T16:08:29.678Z,96196.03
2023-05-25T16:11:15.118Z,96198.22
2023-05-25T16:14:00.490Z,96199.09
2023-05-25T16:16:46.048Z,96195.66
2023-05-25T16:19:31.232Z,96203.34
2023-05-25T16:22:16.433Z,96199.78
2023-05-25T16:25:01.653Z,96201.19
2023-05-25T16:27:46.911Z,96202.63
2023-05-25T16:30:32.346Z,96199.38
2023-05-25T16:33:17.421Z,96202.72
2023-05-25T16:36:02.694Z,96208.19
2023-05-25T16:38:47.920Z,96196.13
2023-05-25T16:41:33.629Z,96199.00
2023-05-25T16:44:18.764Z,96194.63
2023-05-25T16:47:04.135Z,96193.28
2023-05-25T16:49:49.354Z,96190.09
2023-05-25T16:52:34.602Z,96187.22
2023-05-25T16:55:19.846Z,96190.34
2023-05-25T16:58:05.133Z,96192.72
2023-05-25T17:00:51.672Z,96195.69
2023-05-25T17:03:37.338Z,96191.59
2023-05-25T17:06:22.782Z,96187.22
2023-05-25T17:09:09.151Z,96193.16
2023-05-25T17:11:54.282Z,96191.84
2023-05-25T17:14:39.594Z,96199.44
2023-05-25T17:17:28.090Z,96210.06
2023-05-25T17:20:13.357Z,96208.63
2023-05-25T17:22:58.887Z,96205.16
2023-05-25T17:25:45.025Z,96212.06
2023-05-25T17:28:32.844Z,96212.47
2023-05-25T17:31:18.424Z,96214.72
2023-05-25T17:34:03.981Z,96206.78
2023-05-25T17:36:48.952Z,96217.78
2023-05-25T17:39:34.293Z,96219.56
2023-05-25T17:42:19.708Z,96214.66
2023-05-25T17:45:10.663Z,96211.00
2023-05-25T17:47:56.353Z,96206.25
2023-05-25T17:50:41.768Z,96210.75
2023-05-25T17:53:27.196Z,96220.66
2023-05-25T17:56:12.843Z,96224.69
2023-05-25T17:58:57.896Z,96222.06
2023-05-25T18:01:43.511Z,96226.50
2023-05-25T18:04:28.994Z,96221.72
2023-05-25T18:07:14.434Z,96233.59
2023-05-25T18:09:59.986Z,96223.81
2023-05-25T18:12:49.232Z,96234.13
2023-05-25T18:15:34.698Z,96228.66
2023-05-25T18:18:23.237Z,96236.81
2023-05-25T18:21:08.474Z,96237.97
2023-05-25T18:23:53.868Z,96239.34
2023-05-25T18:26:41.668Z,96243.56
2023-05-25T18:29:26.931Z,96248.56
2023-05-25T18:32:12.267Z,96246.78
2023-05-25T18:34:57.826Z,96252.84
2023-05-25T18:37:43.146Z,96252.72
2023-05-25T18:40:28.201Z,96259.19
2023-05-25T18:43:13.593Z,96259.34
2023-05-25T18:45:59.290Z,96254.44
2023-05-25T18:48:44.594Z,96253.41
2023-05-25T18:51:29.708Z,96248.06
2023-05-25T18:54:15.478Z,96260.84
2023-05-25T18:57:01.504Z,96266.66
2023-05-25T18:59:46.933Z,96266.19
2023-05-25T19:02:32.010Z,96267.44
2023-05-25T19:05:18.566Z,96272.66
2023-05-25T19:08:04.137Z,96286.22
2023-05-25T19:10:49.478Z,96270.69
2023-05-25T19:13:34.627Z,96279.28
2023-05-25T19:16:19.867Z,96276.97
2023-05-25T19:19:05.130Z,96280.41
2023-05-25T19:21:50.912Z,96282.47
2023-05-25T19:24:41.028Z,96284.13
2023-05-25T19:27:27.648Z,96289.00
2023-05-25T19:30:13.139Z,96286.19
2023-05-25T19:32:58.656Z,96294.53
2023-05-25T19:35:44.159Z,96291.38
2023-05-25T19:38:40.239Z,96290.44
2023-05-25T19:41:26.234Z,96292.38
2023-05-25T19:44:11.660Z,96299.88
2023-05-25T19:46:56.814Z,96305.34
2023-05-25T19:49:42.828Z,96308.38
2023-05-25T19:52:28.326Z,96311.41
2023-05-25T19:55:13.728Z,96308.50
2023-05-25T19:57:59.041Z,96317.34
2023-05-25T20:00:44.588Z,96313.97
2023-05-25T20:03:30.234Z,96312.41
2023-05-25T20:06:15.840Z,96309.03
2023-05-25T20:09:01.203Z,96298.50
2023-05-25T20:11:46.459Z,96311.63
2023-05-25T20:14:33.673Z,96310.09
2023-05-25T20:17:19.044Z,96308.72
2023-05-25T20:20:05.362Z,96310.50
2023-05-25T20:22:50.843Z,96314.34
2023-05-25T20:25:36.203Z,96314.09
2023-05-25T20:28:21.303Z,96309.19
2023-05-25T20:31:06.803Z,96313.16
2023-05-25T20:33:51.998Z,96311.31
2023-05-25T20:36:37.480Z,96311.31
2023-05-25T20:39:22.618Z,96316.06
2023-05-25T20:42:07.909Z,96305.59
2023-05-25T20:44:53.199Z,96309.06
2023-05-25T20:47:41.730Z,96306.03
2023-05-25T20:50:27.706Z,96312.09
2023-05-25T20:53:12.687Z,96304.00
2023-05-25T20:55:58.480Z,96309.31
2023-05-25T20:58:43.894Z,96309.44
2023-05-25T21:01:29.665Z,96312.09
2023-05-25T21:04:15.222Z,96304.09
2023-05-25T21:07:00.824Z,96299.81
2023-05-25T21:09:45.983Z,96308.41
2023-05-25T21:12:31.572Z,96304.56
2023-05-25T21:15:16.899Z,96300.41
2023-05-25T21:18:03.651Z,96300.75
2023-05-25T21:20:49.304Z,96306.00
2023-05-25T21:23:34.663Z,96306.72
2023-05-25T21:26:21.388Z,96305.19
2023-05-25T21:29:07.771Z,96307.63
2023-05-25T21:31:53.314Z,96309.03
2023-05-25T21:34:38.527Z,96316.00
2023-05-25T21:37:24.692Z,96316.00
2023-05-25T21:40:10.492Z,96317.38
2023-05-25T21:42:56.062Z,96324.34
2023-05-25T21:45:41.559Z,96325.53
2023-05-25T21:48:26.878Z,96323.75
2023-05-25T21:51:12.190Z,96321.88
2023-05-25T21:53:58.842Z,96314.22
2023-05-25T21:56:43.981Z,96310.88
2023-05-25T21:59:29.456Z,96308.78
2023-05-25T22:02:14.809Z,96302.72
2023-05-25T22:05:00.082Z,96300.84
2023-05-25T22:07:45.954Z,96314.50
2023-05-25T22:10:33.614Z,96311.44
2023-05-25T22:13:18.890Z,96308.50
2023-05-25T22:16:04.120Z,96307.91
2023-05-25T22:18:49.345Z,96313.56
2023-05-25T22:21:34.754Z,96315.78
2023-05-25T22:24:19.998Z,96319.13
2023-05-25T22:27:06.638Z,96318.69
2023-05-25T22:29:51.818Z,96322.91
2023-05-25T22:32:37.082Z,96321.88
2023-05-25T22:35:22.205Z,96320.53
2023-05-25T22:38:07.483Z,96325.00
2023-05-25T22:40:52.850Z,96324.63
2023-05-25T22:43:38.015Z,96319.75
2023-05-25T22:46:23.431Z,96320.03
2023-05-25T22:49:08.637Z,96321.44
2023-05-25T22:51:54.161Z,96317.91
2023-05-25T22:54:39.881Z,96323.13
2023-05-25T22:57:25.458Z,96315.66
2023-05-25T23:00:11.269Z,96321.72
2023-05-25T23:02:57.600Z,96321.78
2023-05-25T23:05:42.812Z,96316.03
2023-05-25T23:08:28.225Z,96321.31
2023-05-25T23:11:13.468Z,96316.78
2023-05-25T23:14:00.733Z,96305.16
2023-05-25T23:16:48.658Z,96311.44
2023-05-25T23:19:34.252Z,96316.09
2023-05-25T23:22:19.675Z,96314.25
2023-05-25T23:25:05.513Z,96315.78
2023-05-25T23:27:50.699Z,96322.31
2023-05-25T23:30:36.005Z,96308.31
2023-05-25T23:33:22.126Z,96311.19
2023-05-25T23:36:07.449Z,96312.34
2023-05-25T23:38:52.999Z,96307.22
2023-05-25T23:41:38.156Z,96308.69
2023-05-25T23:44:23.517Z,96306.72
2023-05-25T23:47:09.509Z,96303.09
2023-05-25T23:49:54.530Z,96301.47
2023-05-25T23:52:40.153Z,96302.31
2023-05-25T23:55:25.136Z,96301.16
2023-05-25T23:58:10.543Z,96306.84
